Bayonne, NJ (07002)

9:46 AM EDT on July 29, 2016 (GMT -0400)
West Brighton | | Change Station

Elev 121 ft 40.63 °N, 74.11 °W | Updated 8 seconds ago

Heavy Rain
Heavy Rain Mist
70.7 °F
Feels Like 70.7 °F
N
1.7
Wind Variable Wind from NE

Today
High -- | Low -- °F
--% Chance of Precip.
Yesterday
High -- | Low -- °F
Precip. -- in
Pressure 29.86 in
Visibility 3.0 miles
Clouds Scattered Clouds 600 ft
Mostly Cloudy 1000 ft
Overcast 2500 ft
Dew Point 70 °F
Humidity 96%
Rainfall 0.78 in
Snow Depth Not available.
5:50 AM 8:14 PM
Waning Crescent, 22% visible
METAR KEWR 291251Z 01009KT 3SM R04R/6000VP6000FT +RA BR SCT006 BKN010 OVC025 21/21 A2986 RMK AO2 SLP110 P0014 T02110206 $
Pressure 29.86 in
Visibility 3.0 miles
Clouds Scattered Clouds 600 ft
Mostly Cloudy 1000 ft
Overcast 2500 ft
Dew Point 70 °F
Humidity 96%
Rainfall 0.78 in
Snow Depth Not available.
5:50 AM 8:14 PM
Waning Crescent, 22% visible
METAR KEWR 291251Z 01009KT 3SM R04R/6000VP6000FT +RA BR SCT006 BKN010 OVC025 21/21 A2986 RMK AO2 SLP110 P0014 T02110206 $

10-Day Weather Forecast

Almanac

Astronomy

Jul. 29, 2016 Rise Set
Actual Time
Civil Twilight
Nautical Twilight
Astronomical Twilight
Moon
Length of Visible Light
Length of Day
Tomorrow will be .
, % of the Moon is Illuminated

Today's Extremes

State Highs State Lows

Community

WunderPhotos

Upload Photos

1,928,340 photos uploaded!

WunderBlog® & News

Nearby

Air Quality

  Air Quality AQ Index Pollutant
Not available.

Snow Depth

Station Depth Elevation

Earthquake Activity

City Distance Mag. Time & Date
Minimum magnitude displayed is 2.5.

Coastal Water Temperatures

Place Temperature

Stations

Nearby Weather Stations

Station Location Temp. Windchill Dew Point Humidity Wind Precip. Elev Updated Type
                   

Watches & Warnings

There are currently no watches in effect.